createdAt,value
2017-07-27T00:00:47.127Z,0
2017-07-27T00:01:47.132Z,0
2017-07-27T00:02:47.467Z,0
2017-07-27T00:03:47.421Z,0
2017-07-27T00:04:47.749Z,0
2017-07-27T00:05:47.463Z,0
2017-07-27T00:06:47.462Z,0
2017-07-27T00:07:47.734Z,0
2017-07-27T00:08:47.740Z,0
2017-07-27T00:09:47.060Z,0
2017-07-27T00:10:47.085Z,0
2017-07-27T00:11:47.750Z,0
2017-07-27T00:12:47.705Z,0
2017-07-27T00:13:47.701Z,0
2017-07-27T00:14:47.038Z,0
2017-07-27T00:15:47.370Z,0
2017-07-27T00:16:47.713Z,0
2017-07-27T00:17:47.028Z,0
2017-07-27T00:18:47.665Z,0
2017-07-27T00:19:47.658Z,0
2017-07-27T00:20:47.709Z,0
2017-07-27T00:21:47.315Z,0
2017-07-27T00:22:47.330Z,0
2017-07-27T00:23:47.318Z,0
2017-07-27T00:24:47.289Z,0
2017-07-27T00:25:47.322Z,0
2017-07-27T00:26:47.337Z,0
2017-07-27T00:27:47.297Z,0
2017-07-27T00:28:47.277Z,0
2017-07-27T00:29:47.285Z,0
2017-07-27T00:30:47.267Z,0
2017-07-27T00:31:46.997Z,0
2017-07-27T00:32:46.922Z,0
2017-07-27T00:33:46.915Z,0
2017-07-27T00:34:46.913Z,0
2017-07-27T00:35:47.243Z,0
2017-07-27T00:36:46.905Z,0
2017-07-27T00:37:47.215Z,0
2017-07-27T00:38:47.206Z,0
2017-07-27T00:39:47.218Z,0
2017-07-27T00:40:47.220Z,0
2017-07-27T00:41:47.190Z,0
2017-07-27T00:42:47.207Z,0
2017-07-27T00:43:47.182Z,0
2017-07-27T00:44:47.190Z,0
2017-07-27T00:45:47.187Z,0
2017-07-27T00:46:47.181Z,0
2017-07-27T00:47:47.488Z,0
2017-07-27T00:48:47.514Z,0
2017-07-27T00:49:46.535Z,0
2017-07-27T00:50:47.159Z,0
2017-07-27T00:51:47.449Z,0
2017-07-27T00:52:47.474Z,0
2017-07-27T00:53:47.148Z,0
2017-07-27T00:54:47.135Z,0
2017-07-27T00:55:47.451Z,0
2017-07-27T00:56:47.159Z,0
2017-07-27T00:57:47.121Z,0
2017-07-27T00:58:46.586Z,0
2017-07-27T00:59:47.218Z,0
2017-07-27T01:00:46.445Z,0
2017-07-27T01:01:47.402Z,0
2017-07-27T01:02:47.081Z,0
2017-07-27T01:03:47.074Z,0
2017-07-27T01:04:48.282Z,0
2017-07-27T01:05:47.378Z,0
2017-07-27T01:06:47.381Z,0
2017-07-27T01:07:47.355Z,0
2017-07-27T01:08:46.702Z,0
2017-07-27T01:09:47.374Z,0
2017-07-27T01:10:47.364Z,0
2017-07-27T01:11:46.713Z,0
2017-07-27T01:12:46.682Z,0
2017-07-27T01:13:47.016Z,0
2017-07-27T01:14:46.383Z,0
2017-07-27T01:15:47.008Z,0
2017-07-27T01:16:50.460Z,0
2017-07-27T01:17:46.969Z,0
2017-07-27T01:18:47.337Z,0
2017-07-27T01:19:46.632Z,0
2017-07-27T01:20:46.960Z,0
2017-07-27T01:21:46.649Z,0
2017-07-27T01:22:47.278Z,0
2017-07-27T01:23:47.274Z,0
2017-07-27T01:24:46.623Z,0
2017-07-27T01:25:46.930Z,0
2017-07-27T01:26:46.932Z,0
2017-07-27T01:27:47.304Z,0
2017-07-27T01:28:46.948Z,0
2017-07-27T01:29:46.905Z,0
2017-07-27T01:30:46.573Z,0
2017-07-27T01:31:46.569Z,0
2017-07-27T01:32:46.591Z,0
2017-07-27T01:33:47.196Z,0
2017-07-27T01:34:46.223Z,0
2017-07-27T01:35:46.542Z,0
2017-07-27T01:36:46.577Z,0
2017-07-27T01:37:46.229Z,0
2017-07-27T01:38:46.527Z,0
2017-07-27T01:39:46.871Z,0
2017-07-27T01:40:46.209Z,0
2017-07-27T01:41:47.177Z,0
2017-07-27T01:42:46.837Z,0
2017-07-27T01:43:47.142Z,0
2017-07-27T01:44:46.175Z,0
2017-07-27T01:45:46.804Z,0
2017-07-27T01:46:46.796Z,0
2017-07-27T01:47:46.810Z,0
2017-07-27T01:48:46.815Z,0
2017-07-27T01:49:46.797Z,0
2017-07-27T01:50:46.469Z,0
2017-07-27T01:51:46.441Z,0
2017-07-27T01:52:46.820Z,0
2017-07-27T01:53:46.765Z,0
2017-07-27T01:54:47.093Z,0
2017-07-27T01:55:46.440Z,0
2017-07-27T01:56:46.414Z,0
2017-07-27T01:57:46.435Z,0
2017-07-27T01:58:46.415Z,0
2017-07-27T01:59:46.095Z,0
2017-07-27T02:00:46.760Z,0
2017-07-27T02:01:47.030Z,0
2017-07-27T02:02:47.027Z,0
2017-07-27T02:03:47.016Z,0
2017-07-27T02:04:47.008Z,0
2017-07-27T02:05:47.012Z,0
2017-07-27T02:06:46.691Z,0
2017-07-27T02:07:47.037Z,0
2017-07-27T02:08:46.663Z,0
2017-07-27T02:09:46.341Z,0
2017-07-27T02:10:46.324Z,0
2017-07-27T02:11:46.980Z,0
2017-07-27T02:12:46.659Z,0
2017-07-27T02:13:46.983Z,0
2017-07-27T02:14:46.308Z,0
2017-07-27T02:15:46.621Z,0
2017-07-27T02:16:46.955Z,0
2017-07-27T02:17:46.307Z,0
2017-07-27T02:18:46.608Z,0
2017-07-27T02:19:46.924Z,0
2017-07-27T02:20:45.975Z,0
2017-07-27T02:21:46.904Z,0
2017-07-27T02:22:45.634Z,0
2017-07-27T02:23:46.918Z,0
2017-07-27T02:24:46.574Z,0
2017-07-27T02:25:46.578Z,0
2017-07-27T02:26:46.568Z,0
2017-07-27T02:27:46.930Z,0
2017-07-27T02:28:46.882Z,0
2017-07-27T02:29:46.871Z,0
2017-07-27T02:30:46.889Z,0
2017-07-27T02:31:46.525Z,0
2017-07-27T02:32:46.538Z,0
2017-07-27T02:33:46.837Z,0
2017-07-27T02:34:45.871Z,0
2017-07-27T02:35:46.511Z,0
2017-07-27T02:36:46.827Z,0
2017-07-27T02:37:46.197Z,0
2017-07-27T02:38:46.483Z,0
2017-07-27T02:39:46.186Z,0
2017-07-27T02:40:46.471Z,0
2017-07-27T02:41:46.544Z,0
2017-07-27T02:42:46.478Z,0
2017-07-27T02:43:46.803Z,0
2017-07-27T02:44:46.484Z,0
2017-07-27T02:45:46.477Z,0
2017-07-27T02:46:46.761Z,0
2017-07-27T02:47:46.763Z,0
2017-07-27T02:48:46.130Z,0
2017-07-27T02:49:46.430Z,0
2017-07-27T02:50:46.449Z,0
2017-07-27T02:51:46.777Z,0
2017-07-27T02:52:46.718Z,0
2017-07-27T02:53:46.070Z,0
2017-07-27T02:54:46.711Z,0
2017-07-27T02:55:46.464Z,0
2017-07-27T02:56:46.061Z,0
2017-07-27T02:57:46.748Z,0
2017-07-27T02:58:46.703Z,0
2017-07-27T02:59:46.374Z,0
2017-07-27T03:00:46.692Z,0
2017-07-27T03:01:46.349Z,0
2017-07-27T03:02:46.699Z,0
2017-07-27T03:03:46.015Z,0
2017-07-27T03:04:46.353Z,0
2017-07-27T03:05:46.327Z,0
2017-07-27T03:06:45.692Z,0
2017-07-27T03:07:46.640Z,0
2017-07-27T03:08:46.653Z,0
2017-07-27T03:09:46.652Z,0
2017-07-27T03:10:46.312Z,0
2017-07-27T03:11:45.973Z,0
2017-07-27T03:12:46.281Z,0
2017-07-27T03:13:46.278Z,0
2017-07-27T03:14:46.284Z,0
2017-07-27T03:15:46.600Z,0
2017-07-27T03:16:46.259Z,0
2017-07-27T03:17:46.274Z,0
2017-07-27T03:18:45.950Z,0
2017-07-27T03:19:46.281Z,0
2017-07-27T03:20:46.579Z,0
2017-07-27T03:21:45.918Z,0
2017-07-27T03:22:45.912Z,0
2017-07-27T03:23:46.218Z,0
2017-07-27T03:24:46.215Z,0
2017-07-27T03:25:46.256Z,0
2017-07-27T03:26:46.202Z,5
2017-07-27T03:27:46.219Z,5
2017-07-27T03:28:45.899Z,5
2017-07-27T03:29:45.882Z,5
2017-07-27T03:30:46.222Z,5
2017-07-27T03:31:46.191Z,5
2017-07-27T03:32:46.496Z,5
2017-07-27T03:33:46.154Z,5
2017-07-27T03:34:46.475Z,10
2017-07-27T03:35:46.180Z,10
2017-07-27T03:36:45.863Z,10
2017-07-27T03:37:46.154Z,10
2017-07-27T03:38:46.126Z,15
2017-07-27T03:39:46.462Z,15
2017-07-27T03:40:46.434Z,15
2017-07-27T03:41:46.436Z,15
2017-07-27T03:42:45.778Z,20
2017-07-27T03:43:45.778Z,20
2017-07-27T03:44:46.424Z,20
2017-07-27T03:45:45.787Z,20
2017-07-27T03:46:46.108Z,25
2017-07-27T03:47:46.196Z,25
2017-07-27T03:48:46.075Z,25
2017-07-27T03:49:46.479Z,25
2017-07-27T03:50:46.067Z,30
2017-07-27T03:51:46.057Z,30
2017-07-27T03:52:46.373Z,30
2017-07-27T03:53:45.715Z,30
2017-07-27T03:54:45.711Z,35
2017-07-27T03:55:46.019Z,35
2017-07-27T03:56:46.005Z,35
2017-07-27T03:57:46.014Z,35
2017-07-27T03:58:46.009Z,35
2017-07-27T03:59:46.311Z,40
2017-07-27T04:00:46.318Z,40
2017-07-27T04:01:45.994Z,40
2017-07-27T04:02:46.148Z,40
2017-07-27T04:03:45.976Z,45
2017-07-27T04:04:45.950Z,45
2017-07-27T04:05:45.740Z,45
2017-07-27T04:06:45.670Z,45
2017-07-27T04:07:45.933Z,50
2017-07-27T04:08:46.255Z,50
2017-07-27T04:09:45.938Z,50
2017-07-27T04:10:45.917Z,55
2017-07-27T04:11:45.588Z,55
2017-07-27T04:12:45.900Z,55
2017-07-27T04:13:45.894Z,55
2017-07-27T04:14:45.567Z,60
2017-07-27T04:15:45.563Z,60
2017-07-27T04:16:46.212Z,60
2017-07-27T04:17:45.550Z,65
2017-07-27T04:18:46.214Z,65
2017-07-27T04:19:45.208Z,65
2017-07-27T04:20:45.219Z,65
2017-07-27T04:21:46.170Z,70
2017-07-27T04:22:45.191Z,70
2017-07-27T04:23:46.169Z,70
2017-07-27T04:24:46.146Z,70
2017-07-27T04:25:45.489Z,70
2017-07-27T04:26:46.136Z,70
2017-07-27T04:27:46.113Z,70
2017-07-27T04:28:45.490Z,75
2017-07-27T04:29:46.774Z,75
2017-07-27T04:30:46.100Z,75
2017-07-27T04:31:45.802Z,75
2017-07-27T04:32:46.080Z,80
2017-07-27T04:33:45.749Z,80
2017-07-27T04:34:46.072Z,80
2017-07-27T04:35:49.683Z,85
2017-07-27T04:36:45.777Z,85
2017-07-27T04:37:46.047Z,85
2017-07-27T04:38:45.413Z,90
2017-07-27T04:39:45.390Z,90
2017-07-27T04:40:45.700Z,90
2017-07-27T04:41:46.040Z,95
2017-07-27T04:42:45.385Z,95
2017-07-27T04:43:45.406Z,105
2017-07-27T04:44:45.374Z,110
2017-07-27T04:45:45.678Z,135
2017-07-27T04:46:45.391Z,150
2017-07-27T04:47:45.981Z,145
2017-07-27T04:48:45.330Z,130
2017-07-27T04:49:45.321Z,130
2017-07-27T04:50:45.646Z,130
2017-07-27T04:51:45.977Z,120
2017-07-27T04:52:45.311Z,105
2017-07-27T04:53:45.305Z,100
2017-07-27T04:54:45.634Z,120
2017-07-27T04:55:45.632Z,135
2017-07-27T04:56:45.598Z,115
2017-07-27T04:57:45.614Z,100
2017-07-27T04:58:45.938Z,100
2017-07-27T04:59:45.264Z,100
2017-07-27T05:00:45.599Z,95
2017-07-27T05:01:45.586Z,100
2017-07-27T05:02:45.561Z,110
2017-07-27T05:03:45.545Z,105
2017-07-27T05:04:45.282Z,95
2017-07-27T05:05:45.545Z,100
2017-07-27T05:06:45.890Z,115
2017-07-27T05:07:45.530Z,135
2017-07-27T05:08:45.855Z,145
2017-07-27T05:09:45.203Z,140
2017-07-27T05:10:44.880Z,155
2017-07-27T05:11:45.200Z,170
2017-07-27T05:12:45.187Z,155
2017-07-27T05:13:45.482Z,140
2017-07-27T05:14:45.493Z,130
2017-07-27T05:15:45.810Z,130
2017-07-27T05:16:45.515Z,125
2017-07-27T05:17:45.483Z,125
2017-07-27T05:18:45.128Z,130
2017-07-27T05:19:45.768Z,135
2017-07-27T05:20:45.762Z,140
2017-07-27T05:21:45.793Z,140
2017-07-27T05:22:45.448Z,140
2017-07-27T05:23:45.772Z,140
2017-07-27T05:24:45.420Z,140
2017-07-27T05:25:45.449Z,140
2017-07-27T05:26:45.423Z,145
2017-07-27T05:27:45.406Z,145
2017-07-27T05:28:45.151Z,145
2017-07-27T05:29:45.416Z,145
2017-07-27T05:30:45.153Z,150
2017-07-27T05:31:45.410Z,150
2017-07-27T05:32:45.382Z,150
2017-07-27T05:33:45.698Z,150
2017-07-27T05:34:45.356Z,155
2017-07-27T05:35:45.374Z,155
2017-07-27T05:36:45.674Z,160
2017-07-27T05:37:45.689Z,165
2017-07-27T05:38:45.333Z,170
2017-07-27T05:39:45.702Z,185
2017-07-27T05:40:45.668Z,210
2017-07-27T05:41:45.323Z,260
2017-07-27T05:42:45.340Z,300
2017-07-27T05:43:45.643Z,315
2017-07-27T05:44:45.322Z,270
2017-07-27T05:45:45.616Z,245
2017-07-27T05:46:44.987Z,250
2017-07-27T05:47:45.328Z,265
2017-07-27T05:48:45.321Z,290
2017-07-27T05:49:45.625Z,310
2017-07-27T05:50:44.965Z,310
2017-07-27T05:51:44.946Z,275
2017-07-27T05:52:45.588Z,240
2017-07-27T05:53:45.475Z,215
2017-07-27T05:54:44.927Z,220
2017-07-27T05:55:45.281Z,235
2017-07-27T05:56:44.925Z,260
2017-07-27T05:57:45.598Z,270
2017-07-27T05:58:44.921Z,290
2017-07-27T05:59:45.255Z,325
2017-07-27T06:00:45.570Z,320
2017-07-27T06:01:45.220Z,255
2017-07-27T06:02:45.545Z,230
2017-07-27T06:03:45.212Z,235
2017-07-27T06:04:45.216Z,235
2017-07-27T06:05:45.198Z,215
2017-07-27T06:06:45.517Z,200
2017-07-27T06:07:45.513Z,210
2017-07-27T06:08:45.186Z,225
2017-07-27T06:09:45.184Z,220
2017-07-27T06:10:45.512Z,185
2017-07-27T06:11:45.200Z,180
2017-07-27T06:12:45.175Z,205
2017-07-27T06:13:45.168Z,250
2017-07-27T06:14:45.210Z,305
2017-07-27T06:15:44.839Z,270
2017-07-27T06:16:44.557Z,255
2017-07-27T06:17:45.495Z,240
2017-07-27T06:18:45.472Z,215
2017-07-27T06:19:45.487Z,210
2017-07-27T06:20:44.818Z,235
2017-07-27T06:21:45.501Z,250
2017-07-27T06:22:45.464Z,260
2017-07-27T06:23:45.178Z,260
2017-07-27T06:24:45.157Z,310
2017-07-27T06:25:45.148Z,360
2017-07-27T06:26:45.131Z,390
2017-07-27T06:27:45.434Z,375
2017-07-27T06:28:45.450Z,330
2017-07-27T06:29:45.482Z,315
2017-07-27T06:30:45.429Z,270
2017-07-27T06:31:45.142Z,255
2017-07-27T06:32:44.801Z,245
2017-07-27T06:33:45.454Z,255
2017-07-27T06:34:45.124Z,250
2017-07-27T06:35:45.416Z,225
2017-07-27T06:36:45.111Z,215
2017-07-27T06:37:45.096Z,215
2017-07-27T06:38:45.086Z,225
2017-07-27T06:39:45.408Z,245
2017-07-27T06:40:44.774Z,260
2017-07-27T06:41:44.815Z,285
2017-07-27T06:42:44.455Z,310
2017-07-27T06:43:45.113Z,320
2017-07-27T06:44:45.092Z,305
2017-07-27T06:45:45.414Z,355
2017-07-27T06:46:45.119Z,435
2017-07-27T06:47:45.414Z,450
2017-07-27T06:48:44.782Z,375
2017-07-27T06:49:44.752Z,420
2017-07-27T06:50:45.066Z,445
2017-07-27T06:51:44.426Z,440
2017-07-27T06:52:44.757Z,450
2017-07-27T06:53:44.769Z,455
2017-07-27T06:54:45.285Z,445
2017-07-27T06:55:45.099Z,330
2017-07-27T06:56:45.055Z,355
2017-07-27T06:57:45.049Z,480
2017-07-27T06:58:45.387Z,525
2017-07-27T06:59:45.044Z,570
2017-07-27T07:00:44.448Z,595
2017-07-27T07:01:45.056Z,615
2017-07-27T07:02:45.384Z,490
2017-07-27T07:03:44.735Z,430
2017-07-27T07:04:45.039Z,435
2017-07-27T07:05:45.364Z,445
2017-07-27T07:06:45.366Z,485
2017-07-27T07:07:45.042Z,740
2017-07-27T07:08:44.750Z,660
2017-07-27T07:09:45.362Z,760
2017-07-27T07:10:45.383Z,530
2017-07-27T07:11:44.400Z,555
2017-07-27T07:12:44.773Z,590
2017-07-27T07:13:44.731Z,670
2017-07-27T07:14:45.079Z,675
2017-07-27T07:15:44.750Z,710
2017-07-27T07:16:45.045Z,600
2017-07-27T07:17:45.387Z,580
2017-07-27T07:18:45.044Z,580
2017-07-27T07:19:45.584Z,590
2017-07-27T07:20:45.066Z,585
2017-07-27T07:21:44.099Z,535
2017-07-27T07:22:45.371Z,405
2017-07-27T07:23:45.393Z,380
2017-07-27T07:24:44.426Z,270
2017-07-27T07:25:44.433Z,245
2017-07-27T07:26:45.077Z,225
2017-07-27T07:27:45.372Z,220
2017-07-27T07:28:45.383Z,225
2017-07-27T07:29:44.768Z,255
2017-07-27T07:30:45.086Z,300
2017-07-27T07:31:45.095Z,330
2017-07-27T07:32:44.746Z,345
2017-07-27T07:33:44.744Z,340
2017-07-27T07:34:44.747Z,365
2017-07-27T07:35:45.386Z,400
2017-07-27T07:36:45.054Z,430
2017-07-27T07:37:45.076Z,460
2017-07-27T07:38:44.740Z,480
2017-07-27T07:39:45.059Z,475
2017-07-27T07:40:45.408Z,465
2017-07-27T07:41:45.055Z,445
2017-07-27T07:42:44.397Z,420
2017-07-27T07:43:44.739Z,395
2017-07-27T07:44:44.715Z,375
2017-07-27T07:45:44.758Z,375
2017-07-27T07:46:45.049Z,380
2017-07-27T07:47:45.057Z,370
2017-07-27T07:48:44.657Z,365
2017-07-27T07:49:44.734Z,375
2017-07-27T07:50:45.375Z,370
2017-07-27T07:51:45.361Z,385
2017-07-27T07:52:44.729Z,395
2017-07-27T07:53:45.057Z,410
2017-07-27T07:54:45.363Z,420
2017-07-27T07:55:45.551Z,425
2017-07-27T07:56:44.734Z,425
2017-07-27T07:57:45.366Z,435
2017-07-27T07:58:45.374Z,440
2017-07-27T07:59:45.376Z,445
2017-07-27T08:00:45.042Z,445
2017-07-27T08:01:44.407Z,440
2017-07-27T08:02:45.359Z,435
2017-07-27T08:03:45.351Z,430
2017-07-27T08:04:44.385Z,425
2017-07-27T08:05:44.764Z,420
2017-07-27T08:06:44.701Z,410
2017-07-27T08:07:44.712Z,410
2017-07-27T08:08:44.405Z,415
2017-07-27T08:09:44.735Z,420
2017-07-27T08:10:44.750Z,435
2017-07-27T08:11:45.023Z,450
2017-07-27T08:12:45.026Z,460
2017-07-27T08:13:45.350Z,465
2017-07-27T08:14:45.367Z,485
2017-07-27T08:15:45.033Z,495
2017-07-27T08:16:44.389Z,440
2017-07-27T08:17:44.694Z,460
2017-07-27T08:18:44.712Z,480
2017-07-27T08:19:45.015Z,435
2017-07-27T08:20:44.693Z,460
2017-07-27T08:21:45.341Z,475
2017-07-27T08:22:45.011Z,455
2017-07-27T08:23:45.030Z,440
2017-07-27T08:24:44.718Z,430
2017-07-27T08:25:45.326Z,425
2017-07-27T08:26:45.349Z,415
2017-07-27T08:27:45.021Z,410
2017-07-27T08:28:45.071Z,405
2017-07-27T08:29:44.685Z,405
2017-07-27T08:30:45.346Z,405
2017-07-27T08:31:44.369Z,395
2017-07-27T08:32:45.323Z,380
2017-07-27T08:33:45.329Z,370
2017-07-27T08:34:45.002Z,350
2017-07-27T08:35:45.321Z,330
2017-07-27T08:36:45.327Z,315
2017-07-27T08:37:44.684Z,305
2017-07-27T08:38:45.321Z,300
2017-07-27T08:39:45.387Z,300
2017-07-27T08:40:45.052Z,300
2017-07-27T08:41:45.310Z,295
2017-07-27T08:42:45.307Z,280
2017-07-27T08:43:44.366Z,265
2017-07-27T08:44:44.986Z,250
2017-07-27T08:45:44.673Z,235
2017-07-27T08:46:45.329Z,220
2017-07-27T08:47:44.365Z,195
2017-07-27T08:48:44.672Z,180
2017-07-27T08:49:44.980Z,190
2017-07-27T08:50:44.666Z,200
2017-07-27T08:51:45.312Z,195
2017-07-27T08:52:44.696Z,170
2017-07-27T08:53:44.653Z,125
2017-07-27T08:54:44.996Z,110
2017-07-27T08:55:45.302Z,125
2017-07-27T08:56:44.969Z,145
2017-07-27T08:57:44.661Z,165
2017-07-27T08:58:44.655Z,205
2017-07-27T08:59:45.007Z,195
2017-07-27T09:00:44.658Z,185
2017-07-27T09:01:44.640Z,180
2017-07-27T09:02:45.288Z,185
2017-07-27T09:03:45.291Z,190
2017-07-27T09:04:44.655Z,185
2017-07-27T09:05:45.298Z,170
2017-07-27T09:06:45.277Z,145
2017-07-27T09:07:45.292Z,135
2017-07-27T09:08:45.274Z,140
2017-07-27T09:09:45.264Z,130
2017-07-27T09:10:45.297Z,120
2017-07-27T09:11:44.616Z,120
2017-07-27T09:12:44.960Z,125
2017-07-27T09:13:44.966Z,140
2017-07-27T09:14:45.252Z,150
2017-07-27T09:15:44.650Z,180
2017-07-27T09:16:45.260Z,185
2017-07-27T09:17:45.245Z,205
2017-07-27T09:18:44.976Z,210
2017-07-27T09:19:44.282Z,225
2017-07-27T09:20:44.949Z,260
2017-07-27T09:21:44.930Z,310
2017-07-27T09:22:45.234Z,265
2017-07-27T09:23:45.244Z,255
2017-07-27T09:24:44.913Z,195
2017-07-27T09:25:45.269Z,185
2017-07-27T09:26:44.914Z,225
2017-07-27T09:27:45.235Z,220
2017-07-27T09:28:44.577Z,195
2017-07-27T09:29:44.905Z,190
2017-07-27T09:30:44.899Z,215
2017-07-27T09:31:44.901Z,230
2017-07-27T09:32:44.889Z,225
2017-07-27T09:33:44.902Z,195
2017-07-27T09:34:44.580Z,195
2017-07-27T09:35:45.207Z,200
2017-07-27T09:36:45.243Z,215
2017-07-27T09:37:44.876Z,325
2017-07-27T09:38:44.880Z,375
2017-07-27T09:39:45.227Z,365
2017-07-27T09:40:44.233Z,300
2017-07-27T09:41:44.878Z,235
2017-07-27T09:42:44.864Z,170
2017-07-27T09:43:44.867Z,160
2017-07-27T09:44:45.198Z,160
2017-07-27T09:45:44.867Z,175
2017-07-27T09:46:44.872Z,210
2017-07-27T09:47:44.539Z,205
2017-07-27T09:48:45.217Z,195
2017-07-27T09:49:44.874Z,175
2017-07-27T09:50:44.535Z,175
2017-07-27T09:51:45.168Z,135
2017-07-27T09:52:44.859Z,125
2017-07-27T09:53:44.839Z,150
2017-07-27T09:54:44.568Z,155
2017-07-27T09:55:45.149Z,140
2017-07-27T09:56:45.147Z,115
2017-07-27T09:57:44.526Z,105
2017-07-27T09:58:44.500Z,85
2017-07-27T09:59:45.157Z,95
2017-07-27T10:00:44.501Z,120
2017-07-27T10:01:44.828Z,135
2017-07-27T10:02:44.831Z,150
2017-07-27T10:03:45.160Z,145
2017-07-27T10:04:45.129Z,175
2017-07-27T10:05:44.501Z,165
2017-07-27T10:06:44.812Z,170
2017-07-27T10:07:44.814Z,195
2017-07-27T10:08:45.137Z,200
2017-07-27T10:09:44.875Z,190
2017-07-27T10:10:44.795Z,185
2017-07-27T10:11:44.816Z,175
2017-07-27T10:12:44.462Z,170
2017-07-27T10:13:44.774Z,175
2017-07-27T10:14:44.778Z,175
2017-07-27T10:15:44.140Z,185
2017-07-27T10:16:44.450Z,190
2017-07-27T10:17:44.462Z,205
2017-07-27T10:18:44.442Z,220
2017-07-27T10:19:44.760Z,200
2017-07-27T10:20:44.453Z,190
2017-07-27T10:21:44.443Z,175
2017-07-27T10:22:45.089Z,175
2017-07-27T10:23:45.086Z,165
2017-07-27T10:24:45.085Z,175
2017-07-27T10:25:44.760Z,190
2017-07-27T10:26:44.770Z,210
2017-07-27T10:27:44.756Z,200
2017-07-27T10:28:44.737Z,180
2017-07-27T10:29:44.433Z,185
2017-07-27T10:30:44.411Z,210
2017-07-27T10:31:44.738Z,210
2017-07-27T10:32:45.048Z,250
2017-07-27T10:33:45.095Z,235
2017-07-27T10:34:44.727Z,285
2017-07-27T10:35:44.422Z,315
2017-07-27T10:36:44.726Z,330
2017-07-27T10:37:44.612Z,355
2017-07-27T10:38:45.047Z,365
2017-07-27T10:39:45.051Z,400
2017-07-27T10:40:45.022Z,400
2017-07-27T10:41:44.705Z,375
2017-07-27T10:42:44.730Z,350
2017-07-27T10:43:44.709Z,330
2017-07-27T10:44:44.047Z,320
2017-07-27T10:45:45.041Z,330
2017-07-27T10:46:44.679Z,370
2017-07-27T10:47:44.742Z,415
2017-07-27T10:48:44.356Z,415
2017-07-27T10:49:44.364Z,360
2017-07-27T10:50:44.705Z,385
2017-07-27T10:51:44.672Z,400
2017-07-27T10:52:44.356Z,385
2017-07-27T10:53:44.663Z,410
2017-07-27T10:54:45.014Z,425
2017-07-27T10:55:44.382Z,390
2017-07-27T10:56:44.343Z,335
2017-07-27T10:57:44.658Z,320
2017-07-27T10:58:44.359Z,325
2017-07-27T10:59:44.352Z,265
2017-07-27T11:00:44.677Z,270
2017-07-27T11:01:44.682Z,305
2017-07-27T11:02:44.678Z,345
2017-07-27T11:03:44.987Z,345
2017-07-27T11:04:44.640Z,340
2017-07-27T11:05:44.999Z,245
2017-07-27T11:06:44.639Z,295
2017-07-27T11:07:44.650Z,280
2017-07-27T11:08:44.315Z,270
2017-07-27T11:09:43.990Z,280
2017-07-27T11:10:44.645Z,280
2017-07-27T11:11:44.944Z,280
2017-07-27T11:12:44.330Z,290
2017-07-27T11:13:44.824Z,290
2017-07-27T11:14:44.974Z,280
2017-07-27T11:15:44.326Z,265
2017-07-27T11:16:44.624Z,255
2017-07-27T11:17:43.972Z,280
2017-07-27T11:18:44.986Z,255
2017-07-27T11:19:44.933Z,265
2017-07-27T11:20:44.945Z,260
2017-07-27T11:21:44.302Z,285
2017-07-27T11:22:44.620Z,295
2017-07-27T11:23:44.926Z,330
2017-07-27T11:24:44.936Z,330
2017-07-27T11:25:44.620Z,290
2017-07-27T11:26:44.489Z,300
2017-07-27T11:27:44.280Z,250
2017-07-27T11:28:44.585Z,275
2017-07-27T11:29:44.584Z,270
2017-07-27T11:30:44.907Z,260
2017-07-27T11:31:44.652Z,250
2017-07-27T11:32:43.948Z,255
2017-07-27T11:33:44.258Z,260
2017-07-27T11:34:43.605Z,190
2017-07-27T11:35:43.929Z,250
2017-07-27T11:36:44.263Z,225
2017-07-27T11:37:44.246Z,225
2017-07-27T11:38:44.581Z,225
2017-07-27T11:39:44.886Z,205
2017-07-27T11:40:44.243Z,185
2017-07-27T11:41:44.926Z,200
2017-07-27T11:42:44.559Z,180
2017-07-27T11:43:44.904Z,180
2017-07-27T11:44:44.567Z,155
2017-07-27T11:45:44.564Z,145
2017-07-27T11:46:44.541Z,145
2017-07-27T11:47:44.550Z,135
2017-07-27T11:48:44.534Z,140
2017-07-27T11:49:44.545Z,130
2017-07-27T11:50:44.555Z,120
2017-07-27T11:51:44.894Z,115
2017-07-27T11:52:44.850Z,110
2017-07-27T11:53:44.595Z,110
2017-07-27T11:54:44.538Z,125
2017-07-27T11:55:44.197Z,145
2017-07-27T11:56:44.856Z,145
2017-07-27T11:57:44.202Z,145
2017-07-27T11:58:44.523Z,150
2017-07-27T11:59:44.513Z,155
2017-07-27T12:00:44.188Z,160
2017-07-27T12:01:44.562Z,190
2017-07-27T12:02:44.196Z,225
2017-07-27T12:03:44.567Z,250
2017-07-27T12:04:44.827Z,245
2017-07-27T12:05:44.814Z,225
2017-07-27T12:06:44.183Z,220
2017-07-27T12:07:44.854Z,190
2017-07-27T12:08:44.802Z,215
2017-07-27T12:09:44.494Z,205
2017-07-27T12:10:44.492Z,220
2017-07-27T12:11:44.482Z,230
2017-07-27T12:12:44.812Z,285
2017-07-27T12:13:44.802Z,300
2017-07-27T12:14:44.170Z,325
2017-07-27T12:15:44.170Z,370
2017-07-27T12:16:44.505Z,355
2017-07-27T12:17:44.453Z,350
2017-07-27T12:18:44.478Z,275
2017-07-27T12:19:44.785Z,280
2017-07-27T12:20:44.128Z,280
2017-07-27T12:21:44.467Z,290
2017-07-27T12:22:44.443Z,340
2017-07-27T12:23:44.139Z,365
2017-07-27T12:24:44.131Z,360
2017-07-27T12:25:44.753Z,340
2017-07-27T12:26:43.792Z,415
2017-07-27T12:27:44.763Z,415
2017-07-27T12:28:44.431Z,450
2017-07-27T12:29:44.100Z,405
2017-07-27T12:30:44.767Z,370
2017-07-27T12:31:44.740Z,430
2017-07-27T12:32:44.110Z,385
2017-07-27T12:33:44.730Z,320
2017-07-27T12:34:44.756Z,315
2017-07-27T12:35:44.781Z,290
2017-07-27T12:36:44.125Z,325
2017-07-27T12:37:44.758Z,335
2017-07-27T12:38:44.781Z,375
2017-07-27T12:39:44.756Z,450
2017-07-27T12:40:44.722Z,605
2017-07-27T12:41:44.716Z,665
2017-07-27T12:42:44.714Z,580
2017-07-27T12:43:44.413Z,560
2017-07-27T12:44:44.739Z,520
2017-07-27T12:45:44.381Z,550
2017-07-27T12:46:44.709Z,560
2017-07-27T12:47:44.407Z,545
2017-07-27T12:48:44.394Z,495
2017-07-27T12:49:44.111Z,430
2017-07-27T12:50:44.062Z,400
2017-07-27T12:51:44.691Z,370
2017-07-27T12:52:44.376Z,335
2017-07-27T12:53:44.382Z,295
2017-07-27T12:54:44.722Z,310
2017-07-27T12:55:44.702Z,335
2017-07-27T12:56:44.740Z,315
2017-07-27T12:57:43.729Z,290
2017-07-27T12:58:44.378Z,300
2017-07-27T12:59:44.706Z,270
2017-07-27T13:00:44.400Z,250
2017-07-27T13:01:44.699Z,215
2017-07-27T13:02:44.398Z,215
2017-07-27T13:03:44.043Z,235
2017-07-27T13:04:44.389Z,235
2017-07-27T13:05:44.356Z,260
2017-07-27T13:06:44.685Z,310
2017-07-27T13:07:44.346Z,325
2017-07-27T13:08:44.346Z,315
2017-07-27T13:09:44.031Z,305
2017-07-27T13:10:44.024Z,305
2017-07-27T13:11:44.034Z,320
2017-07-27T13:12:44.355Z,310
2017-07-27T13:13:44.361Z,305
2017-07-27T13:14:44.043Z,310
2017-07-27T13:15:44.061Z,320
2017-07-27T13:16:44.659Z,320
2017-07-27T13:17:44.378Z,325
2017-07-27T13:18:44.346Z,310
2017-07-27T13:19:44.338Z,305
2017-07-27T13:20:44.660Z,310
2017-07-27T13:21:44.334Z,345
2017-07-27T13:22:44.657Z,355
2017-07-27T13:23:44.637Z,355
2017-07-27T13:24:44.640Z,365
2017-07-27T13:25:44.015Z,370
2017-07-27T13:26:44.668Z,375
2017-07-27T13:27:43.366Z,390
2017-07-27T13:28:44.329Z,415
2017-07-27T13:29:44.630Z,435
2017-07-27T13:30:44.308Z,475
2017-07-27T13:31:44.636Z,505
2017-07-27T13:32:44.646Z,515
2017-07-27T13:33:44.632Z,515
2017-07-27T13:34:44.345Z,505
2017-07-27T13:35:44.304Z,505
2017-07-27T13:36:44.628Z,525
2017-07-27T13:37:44.633Z,565
2017-07-27T13:38:44.304Z,615
2017-07-27T13:39:44.357Z,650
2017-07-27T13:40:44.308Z,655
2017-07-27T13:41:43.998Z,655
2017-07-27T13:42:44.611Z,620
2017-07-27T13:43:44.004Z,590
2017-07-27T13:44:43.970Z,570
2017-07-27T13:45:44.305Z,575
2017-07-27T13:46:44.621Z,575
2017-07-27T13:47:44.285Z,560
2017-07-27T13:48:43.347Z,510
2017-07-27T13:49:44.620Z,475
2017-07-27T13:50:43.980Z,415
2017-07-27T13:51:44.608Z,380
2017-07-27T13:52:43.988Z,340
2017-07-27T13:53:44.327Z,330
2017-07-27T13:54:43.642Z,265
2017-07-27T13:55:44.301Z,200
2017-07-27T13:56:43.964Z,180
2017-07-27T13:57:44.290Z,215
2017-07-27T13:58:44.281Z,210
2017-07-27T13:59:44.598Z,215
2017-07-27T14:00:44.277Z,235
2017-07-27T14:01:44.277Z,245
2017-07-27T14:02:43.980Z,225
2017-07-27T14:03:44.302Z,275